createdAt,value
2023-01-05T00:02:04.156Z,0.00
2023-01-05T00:04:34.312Z,0.00
2023-01-05T00:07:04.556Z,0.00
2023-01-05T00:09:34.626Z,0.00
2023-01-05T00:12:20.242Z,0.00
2023-01-05T00:15:02.690Z,0.05
2023-01-05T00:17:45.149Z,0.00
2023-01-05T00:20:31.199Z,1.40
2023-01-05T00:23:01.316Z,0.00
2023-01-05T00:25:34.035Z,0.33
2023-01-05T00:28:07.697Z,0.00
2023-01-05T00:30:43.352Z,0.00
2023-01-05T00:33:14.526Z,0.00
2023-01-05T00:35:44.739Z,0.00
2023-01-05T00:38:15.557Z,0.00
2023-01-05T00:40:45.667Z,0.10
2023-01-05T00:43:18.386Z,0.43
2023-01-05T00:45:48.656Z,0.20
2023-01-05T00:48:18.863Z,0.00
2023-01-05T00:50:52.512Z,0.00
2023-01-05T00:53:22.774Z,0.47
2023-01-05T00:55:59.807Z,1.07
2023-01-05T00:58:32.549Z,0.30
2023-01-05T01:01:02.931Z,0.33
2023-01-05T01:03:33.212Z,1.07
2023-01-05T01:06:03.333Z,0.40
2023-01-05T01:08:33.554Z,2.07
2023-01-05T01:11:08.052Z,1.03
2023-01-05T01:13:41.632Z,0.47
2023-01-05T01:16:13.384Z,0.47
2023-01-05T01:18:44.552Z,0.80
2023-01-05T01:21:14.792Z,0.03
2023-01-05T01:23:45.068Z,0.17
2023-01-05T01:26:16.964Z,0.97
2023-01-05T01:28:50.555Z,0.13
2023-01-05T01:31:20.767Z,0.27
2023-01-05T01:33:51.213Z,0.57
2023-01-05T01:36:21.372Z,0.00
2023-01-05T01:38:51.507Z,0.00
2023-01-05T01:41:21.822Z,0.20
2023-01-05T01:43:56.477Z,0.00
2023-01-05T01:46:28.102Z,0.00
2023-01-05T01:49:02.223Z,0.00
2023-01-05T01:51:35.611Z,0.00
2023-01-05T01:54:10.164Z,0.00
2023-01-05T01:56:43.065Z,0.00
2023-01-05T01:59:17.626Z,0.00
2023-01-05T02:01:48.099Z,1.60
2023-01-05T02:04:18.544Z,0.07
2023-01-05T02:06:48.770Z,0.43
2023-01-05T02:09:19.077Z,0.00
2023-01-05T02:12:01.268Z,0.90
2023-01-05T02:14:42.307Z,0.87
2023-01-05T02:17:22.034Z,1.00
2023-01-05T02:20:36.402Z,0.00
2023-01-05T02:23:30.676Z,0.63
2023-01-05T02:26:27.610Z,0.00
2023-01-05T02:29:15.020Z,0.00
2023-01-05T02:31:52.013Z,0.00
2023-01-05T02:34:31.501Z,0.00
2023-01-05T02:37:09.080Z,0.00
2023-01-05T02:39:46.187Z,0.20
2023-01-05T02:42:20.793Z,0.30
2023-01-05T02:44:51.064Z,0.00
2023-01-05T02:47:43.241Z,0.00
2023-01-05T02:50:22.874Z,0.00
2023-01-05T02:52:59.777Z,0.10
2023-01-05T02:55:36.147Z,1.30
2023-01-05T02:58:11.234Z,4.03
2023-01-05T03:00:45.544Z,3.10
2023-01-05T03:03:22.229Z,1.73
2023-01-05T03:05:57.194Z,0.63
2023-01-05T03:08:32.797Z,1.77
2023-01-05T03:11:18.656Z,1.67
2023-01-05T03:13:51.979Z,1.00
2023-01-05T03:16:28.316Z,0.63
2023-01-05T03:19:16.835Z,1.30
2023-01-05T03:22:00.544Z,1.40
2023-01-05T03:24:42.942Z,2.50
2023-01-05T03:27:25.654Z,1.00
2023-01-05T03:30:09.621Z,0.40
2023-01-05T03:32:59.313Z,0.07
2023-01-05T03:35:38.350Z,0.27
2023-01-05T03:38:18.502Z,0.80
2023-01-05T03:40:49.767Z,0.00
2023-01-05T03:43:20.382Z,0.20
2023-01-05T03:45:56.132Z,0.00
2023-01-05T03:48:28.412Z,1.20
2023-01-05T03:51:01.210Z,0.60
2023-01-05T03:53:31.349Z,0.40
2023-01-05T03:56:01.560Z,0.50
2023-01-05T03:58:31.679Z,0.20
2023-01-05T04:01:01.752Z,1.80
2023-01-05T04:03:32.470Z,2.23
2023-01-05T04:06:05.477Z,0.93
2023-01-05T04:08:35.640Z,0.00
2023-01-05T04:11:20.130Z,0.47
2023-01-05T04:13:50.741Z,0.10
2023-01-05T04:16:21.826Z,1.60
2023-01-05T04:18:52.027Z,0.40
2023-01-05T04:21:24.788Z,2.03
2023-01-05T04:23:54.932Z,0.00
2023-01-05T04:26:25.098Z,1.50
2023-01-05T04:28:55.252Z,1.27
2023-01-05T04:31:25.397Z,0.00
2023-01-05T04:33:55.572Z,1.43
2023-01-05T04:36:28.332Z,1.03
2023-01-05T04:38:58.453Z,1.10
2023-01-05T04:41:28.660Z,0.50
2023-01-05T04:43:58.815Z,1.03
2023-01-05T04:46:29.114Z,0.27
2023-01-05T04:48:59.335Z,0.10
2023-01-05T04:51:32.147Z,0.13
2023-01-05T04:54:02.233Z,0.33
2023-01-05T04:56:32.382Z,0.20
2023-01-05T04:59:02.533Z,1.30
2023-01-05T05:01:32.730Z,0.00
2023-01-05T05:04:03.008Z,0.73
2023-01-05T05:06:35.761Z,1.50
2023-01-05T05:09:06.448Z,0.93
2023-01-05T05:11:36.540Z,0.67
2023-01-05T05:14:06.781Z,1.50
2023-01-05T05:16:36.920Z,0.27
2023-01-05T05:19:07.092Z,0.07
2023-01-05T05:21:39.802Z,0.00
2023-01-05T05:24:10.452Z,0.10
2023-01-05T05:26:40.617Z,0.30
2023-01-05T05:29:10.978Z,0.00
2023-01-05T05:31:41.424Z,0.00
2023-01-05T05:34:11.737Z,0.87
2023-01-05T05:36:44.543Z,0.00
2023-01-05T05:39:15.283Z,0.00
2023-01-05T05:41:45.426Z,0.00
2023-01-05T05:44:15.538Z,0.00
2023-01-05T05:46:45.781Z,0.00
2023-01-05T05:49:16.575Z,2.40
2023-01-05T05:51:49.378Z,0.00
2023-01-05T05:54:19.628Z,0.80
2023-01-05T05:56:49.828Z,3.50
2023-01-05T05:59:19.981Z,3.20
2023-01-05T06:01:50.307Z,2.20
2023-01-05T06:04:20.652Z,0.57
2023-01-05T06:06:53.444Z,0.00
2023-01-05T06:09:25.176Z,0.73
2023-01-05T06:11:55.600Z,1.87
2023-01-05T06:14:25.874Z,0.00
2023-01-05T06:16:56.104Z,1.70
2023-01-05T06:19:26.212Z,1.23
2023-01-05T06:21:59.001Z,1.60
2023-01-05T06:24:29.332Z,0.47
2023-01-05T06:26:59.497Z,1.90
2023-01-05T06:29:29.694Z,0.83
2023-01-05T06:31:59.930Z,2.97
2023-01-05T06:34:30.158Z,1.30
2023-01-05T06:37:02.991Z,1.57
2023-01-05T06:39:33.102Z,0.13
2023-01-05T06:42:03.334Z,0.77
2023-01-05T06:44:33.519Z,0.00
2023-01-05T06:47:03.620Z,2.67
2023-01-05T06:49:33.864Z,1.50
2023-01-05T06:52:10.871Z,2.07
2023-01-05T06:54:45.974Z,0.90
2023-01-05T06:57:16.156Z,0.87
2023-01-05T06:59:46.264Z,2.93
2023-01-05T07:02:18.551Z,0.10
2023-01-05T07:04:48.887Z,0.97
2023-01-05T07:07:21.639Z,0.87
2023-01-05T07:09:52.161Z,0.00
2023-01-05T07:12:22.298Z,0.93
2023-01-05T07:14:57.316Z,0.00
2023-01-05T07:17:28.029Z,3.70
2023-01-05T07:19:58.114Z,1.57
2023-01-05T07:22:31.253Z,1.03
2023-01-05T07:25:01.599Z,1.27
2023-01-05T07:27:32.020Z,0.53
2023-01-05T07:30:02.200Z,0.10
2023-01-05T07:32:32.344Z,0.00
2023-01-05T07:35:02.555Z,0.83
2023-01-05T07:37:35.346Z,2.50
2023-01-05T07:40:05.529Z,1.20
2023-01-05T07:42:36.389Z,1.30
2023-01-05T07:45:07.111Z,2.13
2023-01-05T07:47:37.365Z,1.40
2023-01-05T07:50:08.672Z,0.67
2023-01-05T07:52:42.237Z,1.20
2023-01-05T07:55:13.189Z,1.07
2023-01-05T07:57:43.370Z,2.33
2023-01-05T08:00:15.273Z,3.50
2023-01-05T08:02:46.439Z,2.83
2023-01-05T08:05:16.577Z,0.97
2023-01-05T08:07:49.283Z,1.47
2023-01-05T08:10:31.524Z,3.20
2023-01-05T08:13:17.803Z,3.60
2023-01-05T08:15:51.281Z,3.60
2023-01-05T08:18:21.679Z,1.70
2023-01-05T08:20:55.945Z,0.60
2023-01-05T08:23:31.407Z,4.90
2023-01-05T08:26:07.649Z,2.70
2023-01-05T08:28:39.771Z,4.93
2023-01-05T08:31:11.327Z,1.67
2023-01-05T08:33:41.582Z,3.57
2023-01-05T08:36:13.535Z,3.60
2023-01-05T08:38:48.805Z,2.03
2023-01-05T08:41:20.386Z,2.73
2023-01-05T08:43:54.020Z,3.60
2023-01-05T08:46:25.753Z,1.47
2023-01-05T08:48:57.753Z,2.37
2023-01-05T08:51:28.344Z,2.37
2023-01-05T08:54:01.700Z,2.80
2023-01-05T08:56:38.245Z,3.43
2023-01-05T08:59:09.212Z,2.27
2023-01-05T09:01:39.870Z,3.17
2023-01-05T09:04:10.107Z,3.10
2023-01-05T09:06:40.298Z,2.87
2023-01-05T09:09:13.249Z,3.73
2023-01-05T09:11:43.521Z,4.53
2023-01-05T09:14:17.789Z,2.67
2023-01-05T09:19:38.745Z,3.27
2023-01-05T09:22:08.937Z,2.93
2023-01-05T09:24:42.114Z,3.37
2023-01-05T09:27:12.286Z,5.17
2023-01-05T09:29:42.442Z,3.47
2023-01-05T09:32:12.633Z,3.43
2023-01-05T09:34:42.996Z,4.23
2023-01-05T09:37:13.174Z,3.43
2023-01-05T09:39:45.951Z,2.43
2023-01-05T09:42:19.892Z,4.03
2023-01-05T09:44:58.648Z,4.53
2023-01-05T09:47:33.658Z,0.13
2023-01-05T09:50:04.559Z,5.13
2023-01-05T09:52:38.416Z,4.80
2023-01-05T09:55:16.070Z,2.43
2023-01-05T09:57:50.358Z,1.73
2023-01-05T10:00:21.829Z,4.03
2023-01-05T10:02:55.288Z,4.33
2023-01-05T10:05:26.961Z,5.07
2023-01-05T10:08:03.584Z,2.43
2023-01-05T10:11:08.231Z,4.60
2023-01-05T10:13:38.529Z,5.33
2023-01-05T10:16:10.300Z,3.57
2023-01-05T10:18:40.537Z,2.70
2023-01-05T10:21:18.898Z,5.83
2023-01-05T10:24:24.445Z,4.97
2023-01-05T10:30:04.073Z,2.53
2023-01-05T10:32:50.235Z,6.20
2023-01-05T10:36:00.138Z,6.23
2023-01-05T10:38:43.817Z,2.35
2023-01-05T10:41:22.387Z,3.37
2023-01-05T10:44:23.142Z,4.43
2023-01-05T10:46:53.598Z,4.77
2023-01-05T10:49:29.006Z,3.40
2023-01-05T10:52:01.261Z,4.63
2023-01-05T10:54:40.540Z,5.65
2023-01-05T10:57:37.049Z,3.90
2023-01-05T11:00:14.382Z,6.50
2023-01-05T11:02:50.502Z,5.10
2023-01-05T11:05:33.898Z,3.33
2023-01-05T11:08:06.541Z,4.57
2023-01-05T11:10:39.333Z,4.83
2023-01-05T11:13:21.892Z,5.28
2023-01-05T11:15:57.967Z,4.03
2023-01-05T11:18:37.111Z,4.57
2023-01-05T11:21:19.540Z,4.03
2023-01-05T11:23:51.143Z,5.07
2023-01-05T11:26:26.699Z,4.38
2023-01-05T11:29:06.195Z,3.55
2023-01-05T11:31:43.195Z,4.33
2023-01-05T11:34:28.975Z,4.37
2023-01-05T11:37:05.796Z,2.83
2023-01-05T11:39:42.001Z,2.77
2023-01-05T11:42:24.661Z,5.30
2023-01-05T11:44:58.995Z,5.68
2023-01-05T11:47:41.299Z,4.85
2023-01-05T11:50:25.279Z,5.57
2023-01-05T11:52:57.577Z,3.25
2023-01-05T11:55:38.135Z,4.17
2023-01-05T11:58:18.564Z,3.42
2023-01-05T12:01:11.381Z,2.72
2023-01-05T12:04:06.701Z,5.47
2023-01-05T12:06:59.165Z,5.33
2023-01-05T12:09:35.531Z,4.95
2023-01-05T12:12:26.727Z,6.30
2023-01-05T12:15:25.303Z,6.33
2023-01-05T12:18:05.919Z,5.57
2023-01-05T12:20:52.937Z,7.27
2023-01-05T12:24:01.996Z,5.95
2023-01-05T12:26:37.104Z,3.10
2023-01-05T12:35:46.253Z,5.18
2023-01-05T12:38:27.550Z,5.72
2023-01-05T12:41:18.352Z,6.50
2023-01-05T12:44:01.740Z,5.28
2023-01-05T12:46:53.042Z,5.53
2023-01-05T12:49:29.468Z,5.40
2023-01-05T12:52:09.184Z,5.95
2023-01-05T12:54:47.399Z,3.47
2023-01-05T12:57:21.961Z,4.83
2023-01-05T12:59:59.370Z,4.67
2023-01-05T13:02:39.541Z,5.45
2023-01-05T13:05:16.932Z,3.63
2023-01-05T13:07:55.304Z,4.15
2023-01-05T13:10:31.895Z,2.40
2023-01-05T13:13:07.170Z,5.03
2023-01-05T13:15:44.032Z,2.47
2023-01-05T13:18:20.812Z,2.47
2023-01-05T13:20:56.461Z,5.10
2023-01-05T13:23:32.262Z,5.03
2023-01-05T13:26:07.179Z,4.17
2023-01-05T13:28:38.200Z,1.70
2023-01-05T13:31:26.891Z,3.38
2023-01-05T13:34:20.514Z,3.15
2023-01-05T13:37:08.611Z,3.38
2023-01-05T13:39:55.546Z,5.33
2023-01-05T13:42:59.218Z,5.50
2023-01-05T13:45:57.878Z,2.85
2023-01-05T13:49:04.886Z,3.67
2023-01-05T13:51:57.609Z,6.23
2023-01-05T13:55:00.388Z,1.55
2023-01-05T13:57:38.356Z,4.73
2023-01-05T14:00:23.776Z,4.17
2023-01-05T14:03:07.501Z,3.83
2023-01-05T14:05:49.469Z,6.23
2023-01-05T14:08:26.059Z,6.67
2023-01-05T14:11:19.377Z,5.17
2023-01-05T14:13:53.042Z,7.37
2023-01-05T14:17:04.768Z,3.50
2023-01-05T14:19:55.588Z,6.90
2023-01-05T14:22:38.612Z,3.17
2023-01-05T14:25:38.689Z,4.30
2023-01-05T14:28:55.834Z,2.57
2023-01-05T14:31:55.706Z,2.10
2023-01-05T14:34:27.581Z,1.05
2023-01-05T14:37:09.267Z,2.43
2023-01-05T14:39:45.472Z,2.33
2023-01-05T14:42:33.200Z,3.47
2023-01-05T14:45:06.974Z,5.67
2023-01-05T14:47:43.895Z,2.50
2023-01-05T14:50:34.172Z,0.20
2023-01-05T14:53:07.668Z,2.17
2023-01-05T14:55:40.380Z,1.87
2023-01-05T14:58:16.250Z,1.43
2023-01-05T15:00:57.947Z,1.33
2023-01-05T15:03:39.684Z,2.43
2023-01-05T15:06:13.244Z,3.83
2023-01-05T15:09:10.052Z,3.75
2023-01-05T15:12:18.707Z,2.40
2023-01-05T15:15:04.188Z,2.33
2023-01-05T15:18:04.067Z,2.33
2023-01-05T15:21:04.637Z,2.47
2023-01-05T15:23:56.306Z,4.93
2023-01-05T15:26:42.137Z,1.40
2023-01-05T15:29:43.172Z,6.13
2023-01-05T15:32:20.321Z,3.27
2023-01-05T15:34:56.630Z,3.07
2023-01-05T15:37:36.680Z,3.57
2023-01-05T15:40:09.497Z,3.57
2023-01-05T15:42:42.800Z,3.03
2023-01-05T15:45:21.550Z,3.00
2023-01-05T15:47:52.874Z,3.20
2023-01-05T15:50:25.804Z,1.37
2023-01-05T15:53:00.455Z,3.83
2023-01-05T15:55:32.668Z,6.47
2023-01-05T15:58:06.452Z,4.33
2023-01-05T16:00:39.255Z,5.30
2023-01-05T16:03:23.709Z,5.33
2023-01-05T16:06:00.174Z,3.50
2023-01-05T16:08:34.832Z,5.00
2023-01-05T16:11:09.784Z,3.23
2023-01-05T16:13:44.667Z,3.00
2023-01-05T16:16:49.825Z,4.73
2023-01-05T16:19:12.600Z,8.93
2023-01-05T16:21:45.901Z,5.53
2023-01-05T16:24:26.322Z,4.33
2023-01-05T16:26:56.624Z,4.50
2023-01-05T16:29:36.474Z,4.63
2023-01-05T16:32:07.086Z,3.43
2023-01-05T16:34:37.294Z,4.67
2023-01-05T16:37:09.386Z,2.20
2023-01-05T16:39:43.728Z,3.53
2023-01-05T16:42:43.513Z,3.43
2023-01-05T16:45:35.401Z,5.50
2023-01-05T16:48:05.682Z,5.80
2023-01-05T16:50:57.455Z,3.50
2023-01-05T16:53:27.676Z,2.80
2023-01-05T16:56:00.948Z,3.03
2023-01-05T16:58:39.940Z,3.53
2023-01-05T17:01:30.192Z,1.57
2023-01-05T17:04:00.475Z,5.07
2023-01-05T17:06:33.187Z,2.80
2023-01-05T17:09:04.869Z,2.57
2023-01-05T17:11:39.589Z,2.70
2023-01-05T17:14:11.036Z,3.43
2023-01-05T17:16:41.255Z,0.47
2023-01-05T17:19:15.931Z,2.23
2023-01-05T17:21:47.953Z,3.83
2023-01-05T17:24:18.174Z,3.03
2023-01-05T17:26:51.596Z,2.23
2023-01-05T17:29:23.897Z,3.30
2023-01-05T17:31:54.262Z,4.60
2023-01-05T17:34:24.842Z,4.90
2023-01-05T17:36:58.250Z,2.90
2023-01-05T17:39:28.863Z,4.60
2023-01-05T17:42:23.655Z,6.47
2023-01-05T17:44:54.663Z,4.27
2023-01-05T17:47:24.821Z,3.73
2023-01-05T17:49:55.037Z,6.33
2023-01-05T17:52:25.194Z,4.50
2023-01-05T17:54:55.306Z,2.70
2023-01-05T17:57:28.068Z,4.90
2023-01-05T17:59:58.305Z,5.23
2023-01-05T18:02:28.535Z,2.87
2023-01-05T18:04:59.533Z,2.30
2023-01-05T18:07:31.895Z,2.83
2023-01-05T18:10:02.734Z,3.37
2023-01-05T18:12:35.626Z,6.70
2023-01-05T18:15:05.726Z,7.07
2023-01-05T18:20:06.148Z,5.27
2023-01-05T18:22:37.068Z,3.70
2023-01-05T18:25:08.316Z,5.47
2023-01-05T18:27:41.582Z,3.40
2023-01-05T18:30:13.641Z,3.83
2023-01-05T18:32:44.685Z,2.80
2023-01-05T18:35:15.202Z,3.63
2023-01-05T18:37:45.485Z,2.13
2023-01-05T18:40:16.199Z,5.73
2023-01-05T18:42:48.970Z,6.73
2023-01-05T18:45:26.172Z,5.37
2023-01-05T18:48:02.254Z,7.13
2023-01-05T18:50:33.423Z,5.73
2023-01-05T18:53:03.731Z,4.70
2023-01-05T18:55:33.875Z,7.27
2023-01-05T18:58:06.592Z,3.63
2023-01-05T19:00:36.735Z,3.37
2023-01-05T19:03:06.959Z,3.77
2023-01-05T19:05:39.312Z,6.50
2023-01-05T19:08:09.687Z,4.77
2023-01-05T19:10:40.373Z,4.87
2023-01-05T19:13:13.115Z,5.50
2023-01-05T19:15:43.261Z,4.30
2023-01-05T19:18:13.394Z,1.73
2023-01-05T19:20:43.640Z,3.13
2023-01-05T19:23:13.811Z,4.80
2023-01-05T19:25:44.019Z,6.20
2023-01-05T19:28:16.812Z,5.07
2023-01-05T19:30:47.011Z,6.53
2023-01-05T19:33:18.696Z,6.33
2023-01-05T19:35:48.843Z,5.80
2023-01-05T19:38:19.007Z,5.73
2023-01-05T19:40:49.164Z,3.47
2023-01-05T19:43:21.874Z,3.57
2023-01-05T19:45:51.968Z,2.00
2023-01-05T19:48:22.147Z,4.10
2023-01-05T19:51:00.266Z,2.33
2023-01-05T19:53:30.774Z,3.13
2023-01-05T19:56:02.954Z,2.50
2023-01-05T19:58:36.570Z,4.60
2023-01-05T20:01:10.751Z,5.73
2023-01-05T20:03:40.999Z,2.73
2023-01-05T20:06:13.900Z,5.20
2023-01-05T20:08:44.476Z,3.33
2023-01-05T20:11:17.041Z,6.10
2023-01-05T20:13:53.889Z,4.77
2023-01-05T20:16:24.051Z,5.83
2023-01-05T20:18:55.457Z,6.00
2023-01-05T20:21:25.654Z,6.20
2023-01-05T20:23:55.847Z,6.60
2023-01-05T20:26:27.143Z,7.33
2023-01-05T20:29:00.968Z,7.10
2023-01-05T20:31:34.168Z,6.57
2023-01-05T20:34:07.340Z,8.60
2023-01-05T20:36:38.272Z,8.37
2023-01-05T20:39:10.021Z,7.80
2023-01-05T20:41:42.687Z,8.63
2023-01-05T20:44:16.802Z,6.37
2023-01-05T20:46:52.020Z,6.73
2023-01-05T20:49:22.701Z,5.17
2023-01-05T20:51:53.395Z,7.10
2023-01-05T20:54:23.647Z,6.10
2023-01-05T20:56:53.790Z,6.70
2023-01-05T20:59:30.288Z,7.13
2023-01-05T21:02:02.637Z,9.57
2023-01-05T21:04:34.537Z,5.27
2023-01-05T21:07:04.657Z,6.83
2023-01-05T21:09:35.187Z,4.93
2023-01-05T21:12:05.298Z,7.93
2023-01-05T21:14:38.232Z,8.00
2023-01-05T21:17:08.774Z,9.87
2023-01-05T21:19:39.927Z,6.17
2023-01-05T21:22:10.174Z,9.17
2023-01-05T21:24:41.229Z,8.37
2023-01-05T21:27:11.408Z,9.57
2023-01-05T21:29:44.218Z,9.90
2023-01-05T21:32:14.356Z,8.40
2023-01-05T21:34:45.386Z,9.47
2023-01-05T21:37:15.496Z,10.53
2023-01-05T21:39:45.634Z,7.57
2023-01-05T21:42:28.003Z,7.13
2023-01-05T21:45:00.810Z,9.23
2023-01-05T21:47:30.924Z,8.87
2023-01-05T21:50:01.080Z,7.67
2023-01-05T21:52:43.454Z,6.83
2023-01-05T21:55:28.422Z,5.40
2023-01-05T21:57:58.662Z,6.77
2023-01-05T22:00:32.206Z,5.33
2023-01-05T22:03:02.363Z,6.07
2023-01-05T22:05:32.562Z,7.30
2023-01-05T22:08:02.657Z,6.20
2023-01-05T22:10:32.823Z,7.60
2023-01-05T22:13:03.019Z,9.73
2023-01-05T22:15:35.787Z,7.77
2023-01-05T22:18:05.909Z,8.20
2023-01-05T22:20:35.978Z,9.70
2023-01-05T22:23:06.081Z,8.90
2023-01-05T22:25:36.854Z,11.23
